createdAt,value
2019-01-17T00:01:21.485Z,99419.67
2019-01-17T00:03:51.916Z,99412.79
2019-01-17T00:06:23.069Z,99408.59
2019-01-17T00:08:56.926Z,99415.78
2019-01-17T00:11:31.030Z,99414.75
2019-01-17T00:14:20.372Z,99422.16
2019-01-17T00:17:09.875Z,99413.81
2019-01-17T00:19:47.374Z,99417.48
2019-01-17T00:22:22.009Z,99418.59
2019-01-17T00:25:09.905Z,99418.72
2019-01-17T00:27:45.083Z,99424.16
2019-01-17T00:30:32.398Z,99426.88
2019-01-17T00:33:07.628Z,99440.94
2019-01-17T00:35:50.854Z,99433.94
2019-01-17T00:38:38.380Z,99431.03
2019-01-17T00:41:11.754Z,99434.47
2019-01-17T00:43:59.353Z,99422.16
2019-01-17T00:46:31.165Z,99417.51
2019-01-17T00:49:11.107Z,99414.60
2019-01-17T00:51:40.846Z,99415.89
2019-01-17T00:54:27.813Z,99407.28
2019-01-17T00:57:00.120Z,99412.09
2019-01-17T00:59:37.519Z,99416.47
2019-01-17T01:02:11.141Z,99413.75
2019-01-17T01:04:45.712Z,99407.10
2019-01-17T01:07:29.762Z,99408.71
2019-01-17T01:10:01.503Z,99413.94
2019-01-17T01:12:41.512Z,99410.33
2019-01-17T01:15:17.478Z,99405.99
2019-01-17T01:18:01.238Z,99407.60
2019-01-17T01:20:44.570Z,99410.19
2019-01-17T01:23:22.512Z,99412.96
2019-01-17T01:25:54.047Z,99413.73
2019-01-17T01:28:25.531Z,99419.53
2019-01-17T01:31:05.717Z,99416.23
2019-01-17T01:33:38.361Z,99417.70
2019-01-17T01:36:26.142Z,99424.89
2019-01-17T01:39:03.662Z,99412.70
2019-01-17T01:41:50.425Z,99414.31
2019-01-17T01:44:30.816Z,99425.84
2019-01-17T01:47:18.615Z,99430.17
2019-01-17T01:49:49.747Z,99426.86
2019-01-17T01:52:21.390Z,99439.81
2019-01-17T01:54:51.747Z,99436.83
2019-01-17T01:57:21.334Z,99438.28
2019-01-17T01:59:51.132Z,99447.05
2019-01-17T02:02:21.486Z,99453.34
2019-01-17T02:04:51.354Z,99445.03
2019-01-17T02:07:21.357Z,99448.37
2019-01-17T02:09:50.883Z,99439.66
2019-01-17T02:12:20.941Z,99446.28
2019-01-17T02:14:50.505Z,99446.33
2019-01-17T02:17:20.394Z,99452.57
2019-01-17T02:19:50.331Z,99450.42
2019-01-17T02:22:20.299Z,99450.30
2019-01-17T02:24:50.243Z,99462.09
2019-01-17T02:27:20.178Z,99465.70
2019-01-17T02:29:50.256Z,99463.11
2019-01-17T02:32:19.895Z,99469.64
2019-01-17T02:34:49.474Z,99464.72
2019-01-17T02:37:20.142Z,99461.28
2019-01-17T02:39:49.640Z,99464.63
2019-01-17T02:42:19.167Z,99467.63
2019-01-17T02:44:49.014Z,99470.27
2019-01-17T02:47:18.760Z,99479.81
2019-01-17T02:49:48.788Z,99488.94
2019-01-17T02:52:18.753Z,99488.45
2019-01-17T02:54:49.146Z,99483.22
2019-01-17T02:57:18.704Z,99478.08
2019-01-17T02:59:48.487Z,99474.38
2019-01-17T03:02:18.572Z,99482.86
2019-01-17T03:04:48.141Z,99485.31
2019-01-17T03:07:17.940Z,99482.59
2019-01-17T03:09:47.857Z,99481.60
2019-01-17T03:12:17.981Z,99474.64
2019-01-17T03:14:47.860Z,99476.78
2019-01-17T03:17:17.450Z,99469.01
2019-01-17T03:19:48.158Z,99470.44
2019-01-17T03:22:18.090Z,99471.69
2019-01-17T03:24:47.638Z,99462.22
2019-01-17T03:27:17.190Z,99468.16
2019-01-17T03:29:47.042Z,99457.74
2019-01-17T03:32:17.270Z,99454.70
2019-01-17T03:34:47.274Z,99452.47
2019-01-17T03:37:17.162Z,99460.34
2019-01-17T03:39:46.672Z,99453.99
2019-01-17T03:42:16.507Z,99461.01
2019-01-17T03:44:46.075Z,99464.89
2019-01-17T03:47:16.862Z,99466.55
2019-01-17T03:49:46.711Z,99451.48
2019-01-17T03:52:16.287Z,99454.08
2019-01-17T03:54:51.247Z,99451.31
2019-01-17T03:57:17.468Z,99446.30
2019-01-17T03:59:47.392Z,99451.00
2019-01-17T04:02:17.246Z,99449.20
2019-01-17T04:04:47.226Z,99452.47
2019-01-17T04:07:17.129Z,99455.55
2019-01-17T04:09:46.636Z,99455.02
2019-01-17T04:12:16.153Z,99453.01
2019-01-17T04:14:45.939Z,99459.80
2019-01-17T04:17:15.781Z,99459.27
2019-01-17T04:19:45.290Z,99463.23
2019-01-17T04:22:14.821Z,99464.62
2019-01-17T04:24:44.675Z,99473.74
2019-01-17T04:27:15.388Z,99467.21
2019-01-17T04:29:44.900Z,99460.56
2019-01-17T04:32:16.730Z,99458.50
2019-01-17T04:34:46.854Z,99449.52
2019-01-17T04:37:16.947Z,99452.02
2019-01-17T04:39:46.510Z,99453.23
2019-01-17T04:42:16.608Z,99453.23
2019-01-17T04:44:46.133Z,99448.67
2019-01-17T04:47:15.681Z,99453.55
2019-01-17T04:49:45.669Z,99452.02
2019-01-17T04:52:17.635Z,99446.61
2019-01-17T04:54:47.493Z,99440.50
2019-01-17T04:57:17.008Z,99445.69
2019-01-17T04:59:46.596Z,99439.52
2019-01-17T05:02:16.953Z,99446.70
2019-01-17T05:04:46.674Z,99448.75
2019-01-17T05:07:16.272Z,99450.86
2019-01-17T05:09:46.337Z,99449.06
2019-01-17T05:12:16.362Z,99455.60
2019-01-17T05:14:46.153Z,99454.08
2019-01-17T05:17:15.647Z,99450.28
2019-01-17T05:19:45.405Z,99449.30
2019-01-17T05:22:14.984Z,99444.64
2019-01-17T05:24:44.502Z,99442.95
2019-01-17T05:27:14.450Z,99445.48
2019-01-17T05:29:44.011Z,99450.19
2019-01-17T05:32:13.840Z,99442.76
2019-01-17T05:34:43.475Z,99441.30
2019-01-17T05:37:13.104Z,99448.81
2019-01-17T05:39:42.759Z,99440.95
2019-01-17T05:42:12.669Z,99440.95
2019-01-17T05:44:42.505Z,99440.95
2019-01-17T05:47:12.410Z,99438.84
2019-01-17T05:49:42.810Z,99439.88
2019-01-17T05:52:12.379Z,99437.82
2019-01-17T05:54:42.414Z,99437.11
2019-01-17T05:57:11.969Z,99430.77
2019-01-17T05:59:44.078Z,99434.74
2019-01-17T06:02:14.326Z,99430.09
2019-01-17T06:04:44.191Z,99441.67
2019-01-17T06:07:15.024Z,99437.70
2019-01-17T06:09:44.564Z,99444.17
2019-01-17T06:12:14.118Z,99432.16
2019-01-17T06:14:43.905Z,99430.09
2019-01-17T06:17:15.903Z,99429.30
2019-01-17T06:19:45.862Z,99424.13
2019-01-17T06:22:15.435Z,99419.02
2019-01-17T06:24:45.370Z,99408.97
2019-01-17T06:27:15.892Z,99413.76
2019-01-17T06:29:45.992Z,99420.94
2019-01-17T06:32:16.060Z,99428.80
2019-01-17T06:34:47.814Z,99434.88
2019-01-17T06:37:18.582Z,99429.17
2019-01-17T06:39:48.110Z,99417.31
2019-01-17T06:42:18.294Z,99421.56
2019-01-17T06:44:48.140Z,99425.00
2019-01-17T06:47:18.307Z,99419.42
2019-01-17T06:49:47.806Z,99426.38
2019-01-17T06:52:17.817Z,99429.56
2019-01-17T06:54:47.964Z,99430.02
2019-01-17T06:57:17.544Z,99433.00
2019-01-17T06:59:47.094Z,99437.51
2019-01-17T07:02:16.788Z,99431.31
2019-01-17T07:04:46.311Z,99432.47
2019-01-17T07:07:17.355Z,99434.08
2019-01-17T07:09:46.888Z,99440.38
2019-01-17T07:12:16.426Z,99435.91
2019-01-17T07:14:45.956Z,99438.63
2019-01-17T07:17:15.522Z,99429.78
2019-01-17T07:19:45.057Z,99424.16
2019-01-17T07:22:14.591Z,99425.91
2019-01-17T07:24:45.654Z,99428.49
2019-01-17T07:27:15.292Z,99438.91
2019-01-17T07:29:44.819Z,99432.42
2019-01-17T07:32:14.347Z,99427.34
2019-01-17T07:34:43.881Z,99439.36
2019-01-17T07:37:13.427Z,99438.45
2019-01-17T07:39:43.200Z,99438.06
2019-01-17T07:42:12.999Z,99432.22
2019-01-17T07:44:42.523Z,99432.36
2019-01-17T07:47:12.113Z,99435.39
2019-01-17T07:49:41.660Z,99433.42
2019-01-17T07:52:11.179Z,99430.22
2019-01-17T07:54:45.540Z,99425.43
2019-01-17T07:57:15.075Z,99429.77
2019-01-17T07:59:44.843Z,99430.08
2019-01-17T08:02:14.383Z,99428.02
2019-01-17T08:04:43.928Z,99436.11
2019-01-17T08:07:16.378Z,99434.76
2019-01-17T08:09:46.188Z,99439.54
2019-01-17T08:12:15.734Z,99438.64
2019-01-17T08:14:45.294Z,99447.77
2019-01-17T08:17:14.836Z,99446.41
2019-01-17T08:19:44.372Z,99444.48
2019-01-17T08:22:15.839Z,99443.34
2019-01-17T08:24:45.354Z,99451.02
2019-01-17T08:27:17.264Z,99445.13
2019-01-17T08:29:46.779Z,99447.18
2019-01-17T08:32:16.305Z,99451.02
2019-01-17T08:34:45.871Z,99445.94
2019-01-17T08:37:15.550Z,99447.44
2019-01-17T08:39:45.075Z,99454.00
2019-01-17T08:42:14.621Z,99456.45
2019-01-17T08:44:44.145Z,99454.09
2019-01-17T08:47:14.855Z,99447.92
2019-01-17T08:49:45.756Z,99445.34
2019-01-17T08:52:15.519Z,99441.70
2019-01-17T08:54:45.045Z,99437.68
2019-01-17T08:57:14.580Z,99441.43
2019-01-17T08:59:44.110Z,99442.90
2019-01-17T09:02:13.645Z,99438.53
2019-01-17T09:04:43.193Z,99436.73
2019-01-17T09:07:12.729Z,99444.20
2019-01-17T09:09:42.262Z,99441.06
2019-01-17T09:12:11.791Z,99442.45
2019-01-17T09:14:41.304Z,99441.86
2019-01-17T09:17:13.170Z,99440.02
2019-01-17T09:19:42.676Z,99441.27
2019-01-17T09:22:12.235Z,99437.54
2019-01-17T09:24:42.206Z,99436.61
2019-01-17T09:27:11.991Z,99432.81
2019-01-17T09:29:41.521Z,99429.53
2019-01-17T09:32:11.188Z,99427.86
2019-01-17T09:34:40.730Z,99424.98
2019-01-17T09:37:10.277Z,99421.09
2019-01-17T09:39:39.815Z,99423.39
2019-01-17T09:42:09.369Z,99414.22
2019-01-17T09:44:38.889Z,99418.26
2019-01-17T09:47:08.411Z,99416.51
2019-01-17T09:49:37.951Z,99413.02
2019-01-17T09:52:11.636Z,99407.23
2019-01-17T09:54:41.194Z,99410.18
2019-01-17T09:57:11.970Z,99407.05
2019-01-17T09:59:43.061Z,99405.69
2019-01-17T10:02:12.587Z,99407.89
2019-01-17T10:04:42.127Z,99401.41
2019-01-17T10:07:11.687Z,99393.27
2019-01-17T10:09:41.462Z,99392.72
2019-01-17T10:12:11.017Z,99381.89
2019-01-17T10:14:40.590Z,99381.64
2019-01-17T10:17:17.069Z,99382.49
2019-01-17T10:19:45.454Z,99379.90
2019-01-17T10:22:31.425Z,99375.47
2019-01-17T10:25:12.742Z,99376.70
2019-01-17T10:27:58.639Z,99363.94
2019-01-17T10:30:58.453Z,99356.64
2019-01-17T10:33:38.449Z,99353.50
2019-01-17T10:36:21.146Z,99348.77
2019-01-17T10:38:55.394Z,99344.28
2019-01-17T10:41:32.422Z,99339.69
2019-01-17T10:44:06.746Z,99338.84
2019-01-17T10:47:07.634Z,99333.36
2019-01-17T10:50:16.267Z,99326.81
2019-01-17T10:53:01.898Z,99325.81
2019-01-17T10:56:13.566Z,99326.81
2019-01-17T10:58:53.563Z,99322.07
2019-01-17T11:01:36.245Z,99316.73
2019-01-17T11:04:19.063Z,99315.98
2019-01-17T11:06:58.974Z,99314.52
2019-01-17T11:09:49.377Z,99316.19
2019-01-17T11:12:41.416Z,99311.59
2019-01-17T11:15:33.932Z,99315.58
2019-01-17T11:18:13.843Z,99325.61
2019-01-17T11:21:19.265Z,99329.83
2019-01-17T11:24:26.103Z,99346.45
2019-01-17T11:27:15.299Z,99342.08
2019-01-17T11:30:01.047Z,99340.45
2019-01-17T11:32:38.085Z,99341.82
2019-01-17T11:35:29.817Z,99333.88
2019-01-17T11:38:15.872Z,99330.95
2019-01-17T11:41:02.156Z,99346.22
2019-01-17T11:43:54.379Z,99337.36
2019-01-17T11:47:04.958Z,99330.30
2019-01-17T11:50:02.991Z,99332.95
2019-01-17T11:52:48.813Z,99340.08
2019-01-17T11:55:44.105Z,99336.48
2019-01-17T11:58:32.893Z,99333.50
2019-01-17T12:01:26.509Z,99338.80
2019-01-17T12:04:32.257Z,99339.52
2019-01-17T12:07:06.235Z,99333.12
2019-01-17T12:09:35.834Z,99334.65
2019-01-17T12:12:06.006Z,99349.53
2019-01-17T12:14:35.545Z,99352.45
2019-01-17T12:17:05.156Z,99358.51
2019-01-17T12:19:34.698Z,99359.75
2019-01-17T12:22:05.541Z,99364.15
2019-01-17T12:24:35.091Z,99365.58
2019-01-17T12:27:04.637Z,99353.09
2019-01-17T12:29:34.155Z,99365.56
2019-01-17T12:32:03.693Z,99375.84
2019-01-17T12:34:33.223Z,99380.05
2019-01-17T12:37:02.752Z,99382.90
2019-01-17T12:39:32.300Z,99388.89
2019-01-17T12:42:01.829Z,99382.63
2019-01-17T12:44:31.624Z,99392.89
2019-01-17T12:47:01.162Z,99393.09
2019-01-17T12:49:30.697Z,99392.64
2019-01-17T12:52:00.249Z,99395.07
2019-01-17T12:54:29.752Z,99396.77
2019-01-17T12:56:59.287Z,99388.48
2019-01-17T12:59:28.825Z,99396.37
2019-01-17T13:01:58.771Z,99392.56
2019-01-17T13:04:28.279Z,99395.92
2019-01-17T13:06:57.805Z,99394.83
2019-01-17T13:09:27.351Z,99394.83
2019-01-17T13:11:56.885Z,99400.77
2019-01-17T13:14:26.666Z,99400.20
2019-01-17T13:16:56.191Z,99401.86
2019-01-17T13:19:25.781Z,99402.02
2019-01-17T13:21:55.299Z,99405.05
2019-01-17T13:24:24.831Z,99410.27
2019-01-17T13:27:00.585Z,99418.50
2019-01-17T13:29:25.638Z,99426.58
2019-01-17T13:31:58.743Z,99424.20
2019-01-17T13:34:28.213Z,99433.05
2019-01-17T13:36:57.754Z,99423.98
2019-01-17T13:39:27.274Z,99442.84
2019-01-17T13:41:56.832Z,99451.69
2019-01-17T13:44:26.390Z,99465.59
2019-01-17T13:46:55.935Z,99475.32
2019-01-17T13:49:25.454Z,99475.05
2019-01-17T13:51:55.002Z,99470.77
2019-01-17T13:54:24.537Z,99477.98
2019-01-17T13:56:55.834Z,99479.16
2019-01-17T13:59:25.340Z,99488.01
2019-01-17T14:01:54.881Z,99486.92
2019-01-17T14:04:24.697Z,99493.20
2019-01-17T14:06:54.224Z,99498.11
2019-01-17T14:09:23.756Z,99498.91
2019-01-17T14:11:53.306Z,99511.27
2019-01-17T14:14:22.851Z,99523.94
2019-01-17T14:16:52.425Z,99528.58
2019-01-17T14:19:21.984Z,99533.23
2019-01-17T14:21:51.527Z,99531.27
2019-01-17T14:24:21.089Z,99537.88
2019-01-17T14:26:50.603Z,99548.21
2019-01-17T14:29:20.125Z,99550.91
2019-01-17T14:31:49.792Z,99553.56
2019-01-17T14:34:19.315Z,99571.16
2019-01-17T14:36:48.825Z,99572.83
2019-01-17T14:39:18.943Z,99581.61
2019-01-17T14:41:48.480Z,99586.88
2019-01-17T14:44:18.011Z,99595.46
2019-01-17T14:46:47.767Z,99597.38
2019-01-17T14:49:18.476Z,99602.70
2019-01-17T14:51:48.083Z,99609.45
2019-01-17T14:54:17.687Z,99618.68
2019-01-17T14:56:47.226Z,99623.48
2019-01-17T14:59:16.751Z,99629.72
2019-01-17T15:01:46.291Z,99631.02
2019-01-17T15:04:15.822Z,99635.23
2019-01-17T15:06:45.382Z,99638.09
2019-01-17T15:09:14.920Z,99645.06
2019-01-17T15:11:44.450Z,99652.89
2019-01-17T15:14:14.005Z,99642.76
2019-01-17T15:16:43.549Z,99649.32
2019-01-17T15:19:13.065Z,99650.95
2019-01-17T15:21:42.618Z,99658.19
2019-01-17T15:24:12.148Z,99662.69
2019-01-17T15:26:41.723Z,99670.43
2019-01-17T15:29:11.324Z,99674.44
2019-01-17T15:31:40.840Z,99672.42
2019-01-17T15:34:10.628Z,99672.25
2019-01-17T15:36:40.148Z,99679.73
2019-01-17T15:39:10.307Z,99686.95
2019-01-17T15:41:39.824Z,99692.83
2019-01-17T15:44:09.401Z,99695.04
2019-01-17T15:46:39.057Z,99689.40
2019-01-17T15:49:08.560Z,99704.63
2019-01-17T15:51:38.093Z,99702.45
2019-01-17T15:54:07.696Z,99712.31
2019-01-17T15:56:37.264Z,99711.77
2019-01-17T15:59:06.795Z,99721.76
2019-01-17T16:01:36.334Z,99727.33
2019-01-17T16:04:05.869Z,99731.58
2019-01-17T16:06:35.429Z,99735.80
2019-01-17T16:09:07.956Z,99742.69
2019-01-17T16:11:37.572Z,99747.64
2019-01-17T16:14:09.322Z,99758.03
2019-01-17T16:16:39.274Z,99757.02
2019-01-17T16:19:08.852Z,99765.09
2019-01-17T16:21:38.438Z,99764.42
2019-01-17T16:24:07.943Z,99773.78
2019-01-17T16:26:37.488Z,99781.78
2019-01-17T16:29:07.042Z,99785.16
2019-01-17T16:31:36.647Z,99790.82
2019-01-17T16:34:06.243Z,99799.89
2019-01-17T16:36:35.789Z,99803.48
2019-01-17T16:39:08.137Z,99803.73
2019-01-17T16:41:37.682Z,99805.91
2019-01-17T16:44:07.465Z,99811.95
2019-01-17T16:46:36.994Z,99814.53
2019-01-17T16:49:06.535Z,99824.61
2019-01-17T16:51:36.186Z,99830.16
2019-01-17T16:54:05.844Z,99832.67
2019-01-17T16:56:35.377Z,99831.56
2019-01-17T16:59:04.972Z,99836.64
2019-01-17T17:01:34.506Z,99843.69
2019-01-17T17:04:04.091Z,99842.84
2019-01-17T17:06:33.862Z,99845.95
2019-01-17T17:09:05.206Z,99848.80
2019-01-17T17:11:34.735Z,99855.59
2019-01-17T17:14:04.334Z,99859.79
2019-01-17T17:16:33.873Z,99871.77
2019-01-17T17:19:03.429Z,99871.16
2019-01-17T17:21:32.954Z,99873.09
2019-01-17T17:24:02.489Z,99879.37
2019-01-17T17:26:32.072Z,99878.43
2019-01-17T17:29:01.637Z,99883.39
2019-01-17T17:31:31.152Z,99882.01
2019-01-17T17:34:00.793Z,99886.44
2019-01-17T17:36:30.313Z,99892.66
2019-01-17T17:38:59.857Z,99894.45
2019-01-17T17:41:29.391Z,99901.05
2019-01-17T17:43:58.921Z,99906.62
2019-01-17T17:46:30.011Z,99912.06
2019-01-17T17:48:59.534Z,99909.19
2019-01-17T17:51:29.355Z,99910.94
2019-01-17T17:53:58.901Z,99904.41
2019-01-17T17:56:28.482Z,99911.38
2019-01-17T17:58:58.016Z,99928.16
2019-01-17T18:01:28.011Z,99922.36
2019-01-17T18:03:58.310Z,99930.98
2019-01-17T18:06:27.802Z,99942.63
2019-01-17T18:08:57.410Z,99943.12
2019-01-17T18:11:26.969Z,99940.89
2019-01-17T18:13:56.516Z,99946.97
2019-01-17T18:16:26.046Z,99958.00
2019-01-17T18:18:56.053Z,99955.06
2019-01-17T18:21:25.605Z,99956.81
2019-01-17T18:23:55.144Z,99962.25
2019-01-17T18:26:25.213Z,99970.45
2019-01-17T18:28:54.796Z,99974.30
2019-01-17T18:31:27.411Z,99982.34
2019-01-17T18:33:56.933Z,99981.55
2019-01-17T18:36:26.447Z,99983.64
2019-01-17T18:38:56.013Z,99999.39
2019-01-17T18:41:25.543Z,100011.64
2019-01-17T18:43:55.083Z,100022.27
2019-01-17T18:46:24.746Z,100034.21
2019-01-17T18:48:54.335Z,100030.70
2019-01-17T18:51:24.059Z,100036.72
2019-01-17T18:53:53.593Z,100031.27
2019-01-17T18:56:23.487Z,100029.88
2019-01-17T18:58:53.332Z,100038.92
2019-01-17T19:01:23.281Z,100040.03
2019-01-17T19:03:52.790Z,100044.31
2019-01-17T19:07:31.541Z,100048.75
2019-01-17T19:10:01.354Z,100058.58
2019-01-17T19:12:30.976Z,100073.91
2019-01-17T19:15:01.987Z,100081.25
2019-01-17T19:17:31.841Z,100079.85
2019-01-17T19:20:01.421Z,100073.41
2019-01-17T19:22:31.424Z,100069.73
2019-01-17T19:25:01.205Z,100076.36
2019-01-17T19:27:31.150Z,100084.88
2019-01-17T19:30:00.928Z,100073.10
2019-01-17T19:32:30.700Z,100080.29
2019-01-17T19:35:00.681Z,100091.52
2019-01-17T19:37:30.498Z,100099.98
2019-01-17T19:40:00.465Z,100111.09
2019-01-17T19:42:35.436Z,100108.38
2019-01-17T19:45:08.751Z,100120.75
2019-01-17T19:47:40.951Z,100126.27
2019-01-17T19:50:26.308Z,100138.78
2019-01-17T19:52:56.405Z,100140.55
2019-01-17T19:55:26.151Z,100150.98
2019-01-17T19:57:56.100Z,100157.37
2019-01-17T20:00:26.163Z,100155.59
2019-01-17T20:02:55.740Z,100153.89
2019-01-17T20:05:29.534Z,100162.58
2019-01-17T20:07:59.286Z,100169.88
2019-01-17T20:10:32.189Z,100175.04
2019-01-17T20:13:02.271Z,100184.33
2019-01-17T20:15:32.314Z,100188.15
2019-01-17T20:18:01.909Z,100194.89
2019-01-17T20:20:32.074Z,100201.76
2019-01-17T20:23:02.768Z,100206.39
2019-01-17T20:25:32.315Z,100208.16
2019-01-17T20:28:01.847Z,100215.69
2019-01-17T20:30:32.424Z,100214.47
2019-01-17T20:33:02.682Z,100221.27
2019-01-17T20:35:32.215Z,100220.67
2019-01-17T20:38:01.791Z,100225.53
2019-01-17T20:40:31.345Z,100233.31
2019-01-17T20:43:04.319Z,100242.29
2019-01-17T20:45:34.415Z,100246.63
2019-01-17T20:48:04.027Z,100238.42
2019-01-17T20:50:33.809Z,100249.97
2019-01-17T20:53:03.363Z,100256.08
2019-01-17T20:55:33.141Z,100265.05
2019-01-17T20:58:02.679Z,100273.22
2019-01-17T21:00:37.260Z,100274.19
2019-01-17T21:03:09.904Z,100281.11
2019-01-17T21:05:39.455Z,100285.95
2019-01-17T21:08:09.031Z,100283.73
2019-01-17T21:10:38.602Z,100286.65
2019-01-17T21:13:08.383Z,100296.57
2019-01-17T21:15:37.886Z,100291.80
2019-01-17T21:18:07.425Z,100299.69
2019-01-17T21:20:36.991Z,100302.55
2019-01-17T21:23:06.519Z,100309.99
2019-01-17T21:25:36.040Z,100319.02
2019-01-17T21:28:05.583Z,100329.33
2019-01-17T21:30:35.127Z,100325.91
2019-01-17T21:33:07.083Z,100327.14
2019-01-17T21:35:35.951Z,100324.45
2019-01-17T21:38:05.548Z,100331.23
2019-01-17T21:40:35.086Z,100334.39
2019-01-17T21:43:04.710Z,100345.28
2019-01-17T21:45:34.250Z,100350.62
2019-01-17T21:48:04.067Z,100357.36
2019-01-17T21:50:33.736Z,100362.09
2019-01-17T21:53:03.288Z,100362.41
2019-01-17T21:55:33.101Z,100362.70
2019-01-17T21:58:02.620Z,100374.78
2019-01-17T22:00:32.154Z,100376.55
2019-01-17T22:03:01.679Z,100378.35
2019-01-17T22:05:31.217Z,100387.57
2019-01-17T22:08:00.742Z,100398.35
2019-01-17T22:10:30.282Z,100399.25
2019-01-17T22:12:59.836Z,100409.47
2019-01-17T22:15:29.631Z,100406.80
2019-01-17T22:17:59.188Z,100409.28
2019-01-17T22:20:28.731Z,100414.50
2019-01-17T22:22:58.281Z,100413.30
2019-01-17T22:25:27.813Z,100427.05
2019-01-17T22:27:57.338Z,100423.04
2019-01-17T22:30:30.881Z,100421.84
2019-01-17T22:33:00.683Z,100431.72
2019-01-17T22:35:33.698Z,100424.84
2019-01-17T22:38:03.208Z,100423.46
2019-01-17T22:40:32.764Z,100426.48
2019-01-17T22:43:02.351Z,100423.95
2019-01-17T22:45:32.800Z,100430.29
2019-01-17T22:48:02.343Z,100445.03
2019-01-17T22:50:31.916Z,100457.28
2019-01-17T22:53:01.442Z,100453.38
2019-01-17T22:55:30.985Z,100464.03
2019-01-17T22:58:00.525Z,100460.55
2019-01-17T23:00:49.211Z,100468.45
2019-01-17T23:03:20.967Z,100473.25
2019-01-17T23:05:50.909Z,100469.05
2019-01-17T23:08:20.459Z,100474.50
2019-01-17T23:10:50.004Z,100474.77
2019-01-17T23:13:19.535Z,100476.56
2019-01-17T23:15:49.069Z,100480.08
2019-01-17T23:18:18.632Z,100483.01
2019-01-17T23:20:48.158Z,100481.72
2019-01-17T23:23:17.785Z,100485.58
2019-01-17T23:25:47.326Z,100492.97
2019-01-17T23:28:16.850Z,100498.20
2019-01-17T23:30:46.434Z,100503.78
2019-01-17T23:33:15.983Z,100506.28
2019-01-17T23:35:47.111Z,100513.54
2019-01-17T23:38:18.838Z,100515.61
2019-01-17T23:40:48.355Z,100519.59
2019-01-17T23:43:17.911Z,100525.29
2019-01-17T23:45:47.466Z,100534.23
2019-01-17T23:48:17.009Z,100535.91
2019-01-17T23:50:46.544Z,100531.97
2019-01-17T23:53:16.097Z,100521.27
2019-01-17T23:55:45.641Z,100531.19
2019-01-17T23:58:15.207Z,100532.87
